Time;durP1;ratioP1;P1;durP2;ratioP2;P2;SDS_P1;SDS_P2;PMS_P1;PMS_P2;Temp;Humidity;BMP_temperature;BMP_pressure;BME280_temperature;BME280_humidity;BME280_pressure;Samples;Min_cycle;Max_cycle;Signal;HPM_P1;HPM_P2
2023/07/02 00:01:47;;;;;;;1.65;1.10;;;15.90;99.90;;;;;;5056823;28;20061;-74
2023/07/02 00:04:16;;;;;;;0.50;0.50;;;15.80;99.90;;;;;;5073176;28;20998;-74
2023/07/02 00:06:43;;;;;;;0.50;0.50;;;15.90;99.90;;;;;;5070442;28;20052;-74
2023/07/02 00:09:10;;;;;;;0.38;0.38;;;15.70;99.90;;;;;;5070858;28;20052;-73
2023/07/02 00:11:38;;;;;;;0.43;0.43;;;15.70;99.90;;;;;;5062862;28;20049;-74
2023/07/02 00:14:04;;;;;;;0.73;0.73;;;15.70;99.90;;;;;;5064678;28;20490;-74
2023/07/02 00:16:30;;;;;;;1.00;1.00;;;15.90;99.90;;;;;;5062856;28;20123;-74
2023/07/02 00:18:57;;;;;;;0.40;0.40;;;15.60;99.90;;;;;;5063915;28;20128;-74
2023/07/02 00:21:25;;;;;;;0.35;0.35;;;15.70;99.90;;;;;;5070487;28;20067;-74
2023/07/02 00:23:51;;;;;;;0.88;0.88;;;15.70;99.90;;;;;;5069749;28;20082;-74
2023/07/02 00:26:17;;;;;;;0.30;0.30;;;15.60;99.90;;;;;;5063866;28;20041;-74
2023/07/02 00:28:42;;;;;;;0.70;0.70;;;15.50;99.90;;;;;;5065875;28;20504;-74
2023/07/02 00:31:08;;;;;;;0.40;0.40;;;15.50;99.90;;;;;;5052131;28;20053;-74
2023/07/02 00:33:34;;;;;;;0.30;0.30;;;15.60;99.90;;;;;;5075894;28;20050;-74
2023/07/02 00:36:00;;;;;;;0.40;0.40;;;15.70;99.90;;;;;;5075695;28;20051;-74
2023/07/02 00:38:26;;;;;;;0.45;0.45;;;15.80;99.90;;;;;;5068252;28;20044;-74
2023/07/02 00:40:52;;;;;;;0.57;0.57;;;15.60;99.90;;;;;;5073254;28;20052;-75
2023/07/02 00:43:18;;;;;;;0.50;0.50;;;15.60;99.90;;;;;;5067486;28;20103;-74
2023/07/02 00:45:45;;;;;;;0.55;0.55;;;15.70;99.90;;;;;;5070588;28;20037;-74
2023/07/02 00:48:11;;;;;;;0.83;0.70;;;15.50;99.90;;;;;;5067182;28;20040;-74
2023/07/02 00:50:37;;;;;;;0.43;0.43;;;15.50;99.90;;;;;;5076856;28;20339;-74
2023/07/02 00:53:03;;;;;;;0.60;0.60;;;15.40;99.90;;;;;;5067738;28;20040;-74
2023/07/02 00:55:28;;;;;;;0.30;0.30;;;15.50;99.90;;;;;;5069675;28;20539;-74
2023/07/02 00:57:56;;;;;;;0.40;0.40;;;15.50;99.90;;;;;;5069872;28;20486;-74
2023/07/02 01:00:22;;;;;;;0.50;0.50;;;15.50;99.90;;;;;;5067989;28;20553;-74
2023/07/02 01:02:58;;;;;;;0.95;0.63;;;15.40;99.90;;;;;;5060172;28;20108;-74
2023/07/02 01:05:35;;;;;;;0.40;0.40;;;15.50;99.90;;;;;;5064259;28;20133;-74
2023/07/02 01:08:02;;;;;;;0.43;0.43;;;15.50;99.90;;;;;;5070012;28;20079;-75
2023/07/02 01:10:28;;;;;;;0.40;0.40;;;15.30;99.90;;;;;;5067544;28;20117;-74
2023/07/02 01:12:55;;;;;;;0.50;0.50;;;15.20;99.90;;;;;;5062347;28;20336;-74
2023/07/02 01:15:21;;;;;;;0.50;0.50;;;15.20;99.90;;;;;;5059135;28;20097;-74
2023/07/02 01:17:48;;;;;;;0.88;0.77;;;15.20;99.90;;;;;;5060040;28;20167;-75
2023/07/02 01:20:14;;;;;;;0.40;0.40;;;15.20;99.90;;;;;;5065324;28;20049;-74
2023/07/02 01:22:40;;;;;;;0.95;0.95;;;15.00;99.90;;;;;;5072404;28;20075;-74
2023/07/02 01:25:08;;;;;;;0.50;0.50;;;15.00;99.90;;;;;;5065270;28;20041;-75
2023/07/02 01:27:35;;;;;;;;;;;15.10;99.90;;;;;;5068212;28;20044;-75
2023/07/02 01:30:01;;;;;;;0.30;0.30;;;14.80;99.90;;;;;;5073560;28;20324;-75
2023/07/02 01:32:27;;;;;;;2.00;1.02;;;14.80;99.90;;;;;;5076693;28;20041;-75
2023/07/02 01:34:53;;;;;;;0.47;0.47;;;14.80;99.90;;;;;;5065931;28;20103;-75
2023/07/02 01:37:19;;;;;;;0.40;0.40;;;14.70;99.90;;;;;;5058597;28;20070;-74
2023/07/02 01:39:45;;;;;;;0.50;0.50;;;14.80;99.90;;;;;;5074630;28;20044;-75
2023/07/02 01:42:15;;;;;;;0.65;0.65;;;14.80;99.90;;;;;;5071937;28;20048;-75
2023/07/02 01:44:41;;;;;;;0.35;0.35;;;14.50;99.90;;;;;;5079082;28;20075;-74
2023/07/02 01:47:07;;;;;;;0.63;0.63;;;14.50;99.90;;;;;;5076218;28;20044;-74
2023/07/02 01:49:33;;;;;;;1.20;1.15;;;14.60;99.90;;;;;;5072999;28;20041;-75
2023/07/02 01:51:59;;;;;;;0.63;0.63;;;14.30;99.90;;;;;;5065904;28;20040;-74
2023/07/02 01:54:27;;;;;;;0.38;0.38;;;14.40;99.90;;;;;;5067460;28;20109;-74
2023/07/02 01:56:56;;;;;;;;;;;14.40;99.90;;;;;;5077768;28;20513;-74
2023/07/02 01:59:22;;;;;;;1.05;1.05;;;14.20;99.90;;;;;;5072602;28;19920;-74
2023/07/02 02:01:49;;;;;;;0.40;0.40;;;14.30;99.90;;;;;;5069306;28;20110;-74
2023/07/02 02:04:15;;;;;;;0.40;0.40;;;14.20;99.90;;;;;;5075482;28;20131;-75
2023/07/02 02:06:41;;;;;;;0.60;0.60;;;14.20;99.90;;;;;;5071860;28;20051;-74
2023/07/02 02:09:09;;;;;;;0.32;0.32;;;13.90;99.90;;;;;;5072500;28;20119;-74
2023/07/02 02:11:38;;;;;;;1.38;0.85;;;14.00;99.90;;;;;;5074531;28;20057;-74
2023/07/02 02:14:04;;;;;;;0.47;0.47;;;14.00;99.90;;;;;;5071613;28;20465;-74
2023/07/02 02:16:30;;;;;;;0.40;0.40;;;14.20;99.90;;;;;;5068701;28;20079;-74
2023/07/02 02:18:56;;;;;;;1.85;1.75;;;14.00;99.90;;;;;;5070112;28;20131;-74
2023/07/02 02:21:22;;;;;;;0.47;0.47;;;14.10;99.90;;;;;;5069900;28;20548;-73
2023/07/02 02:23:48;;;;;;;0.40;0.40;;;14.00;99.90;;;;;;5064278;28;20048;-74
2023/07/02 02:26:15;;;;;;;2.38;0.93;;;13.90;99.90;;;;;;5068996;28;20107;-74
2023/07/02 02:28:41;;;;;;;2.70;1.77;;;13.90;99.90;;;;;;5068173;28;20068;-74
2023/07/02 02:31:07;;;;;;;0.77;0.77;;;13.70;99.90;;;;;;5067053;28;20052;-73
2023/07/02 02:33:35;;;;;;;2.85;0.75;;;13.80;99.90;;;;;;5069486;28;20040;-73
2023/07/02 02:36:03;;;;;;;1.33;1.13;;;13.70;99.90;;;;;;5073721;28;20056;-74
2023/07/02 02:38:29;;;;;;;0.85;0.85;;;13.60;99.90;;;;;;5070172;28;20044;-74
2023/07/02 02:40:55;;;;;;;0.52;0.52;;;13.60;99.90;;;;;;5065002;28;20041;-73
2023/07/02 02:43:20;;;;;;;0.30;0.30;;;13.50;99.90;;;;;;5065264;28;20044;-74
2023/07/02 02:45:46;;;;;;;0.68;0.68;;;13.50;99.90;;;;;;5057501;28;20592;-75
2023/07/02 02:48:12;;;;;;;0.50;0.50;;;13.50;99.90;;;;;;5068602;28;20048;-74
2023/07/02 02:50:44;;;;;;;0.40;0.40;;;13.50;99.90;;;;;;5053417;28;20079;-73
2023/07/02 02:53:10;;;;;;;0.40;0.40;;;13.50;99.90;;;;;;5072849;28;20040;-74
2023/07/02 02:55:37;;;;;;;1.35;1.25;;;13.50;99.90;;;;;;5068196;28;20655;-74
2023/07/02 02:58:03;;;;;;;1.95;1.52;;;13.30;99.90;;;;;;5072819;28;20049;-74
2023/07/02 03:00:29;;;;;;;2.65;0.82;;;13.30;99.90;;;;;;5072408;28;20041;-74
2023/07/02 03:02:55;;;;;;;1.25;1.15;;;13.30;99.90;;;;;;5055221;28;20490;-73
2023/07/02 03:05:24;;;;;;;2.50;0.63;;;13.40;99.90;;;;;;5062680;28;20093;-74
2023/07/02 03:07:50;;;;;;;1.85;0.65;;;13.30;99.90;;;;;;5055791;28;20052;-74
2023/07/02 03:10:16;;;;;;;0.40;0.40;;;13.10;99.90;;;;;;5069149;28;20056;-74
2023/07/02 03:12:41;;;;;;;0.38;0.38;;;13.10;99.90;;;;;;5073015;28;20052;-74
2023/07/02 03:15:08;;;;;;;0.30;0.30;;;13.30;99.90;;;;;;5052515;28;20559;-74
2023/07/02 03:17:33;;;;;;;0.73;0.73;;;13.10;99.90;;;;;;5067959;28;20721;-74
2023/07/02 03:19:59;;;;;;;2.78;1.20;;;13.10;99.90;;;;;;5067076;28;20055;-74
2023/07/02 03:22:26;;;;;;;0.80;0.80;;;13.20;99.90;;;;;;5069276;28;20055;-74
2023/07/02 03:24:51;;;;;;;0.85;0.77;;;13.10;99.90;;;;;;5063616;28;20090;-74
2023/07/02 03:27:17;;;;;;;0.40;0.40;;;13.30;99.90;;;;;;5071417;28;21372;-74
2023/07/02 03:29:42;;;;;;;1.40;1.30;;;13.10;99.90;;;;;;5071936;28;20036;-74
2023/07/02 03:32:08;;;;;;;1.65;1.55;;;12.90;99.90;;;;;;5064884;28;20486;-74
2023/07/02 03:34:34;;;;;;;1.85;1.05;;;13.00;99.90;;;;;;5073414;28;20040;-74
2023/07/02 03:37:00;;;;;;;2.05;1.95;;;13.20;99.90;;;;;;5072973;28;20040;-74
2023/07/02 03:39:25;;;;;;;1.05;1.05;;;13.10;99.90;;;;;;5073499;28;20048;-74
2023/07/02 03:41:51;;;;;;;0.95;0.95;;;13.10;99.90;;;;;;5071356;28;20024;-74
2023/07/02 03:44:16;;;;;;;2.97;1.38;;;13.00;99.90;;;;;;5065318;28;20489;-74
2023/07/02 03:46:43;;;;;;;1.27;1.15;;;13.30;99.90;;;;;;5075340;28;20044;-74
2023/07/02 03:49:09;;;;;;;1.08;1.05;;;13.10;99.90;;;;;;5067599;28;20048;-73
2023/07/02 03:51:34;;;;;;;0.68;0.68;;;13.00;99.90;;;;;;5065108;28;20080;-74
2023/07/02 03:54:00;;;;;;;0.43;0.43;;;13.20;99.90;;;;;;5073428;28;20036;-74
2023/07/02 03:56:26;;;;;;;0.70;0.70;;;13.10;99.90;;;;;;5052155;28;20040;-74
2023/07/02 03:58:55;;;;;;;0.85;0.85;;;13.40;99.90;;;;;;5071658;28;20052;-74
2023/07/02 04:01:21;;;;;;;4.13;1.00;;;13.40;99.90;;;;;;5059580;28;20091;-73
2023/07/02 04:03:53;;;;;;;0.52;0.52;;;13.30;99.90;;;;;;5065152;28;20131;-73
2023/07/02 04:06:19;;;;;;;3.10;1.67;;;13.50;99.90;;;;;;5075545;28;20052;-73
2023/07/02 04:08:45;;;;;;;0.95;0.95;;;13.40;99.90;;;;;;5068800;28;20056;-74
2023/07/02 04:11:12;;;;;;;0.63;0.63;;;13.30;99.90;;;;;;5071501;28;20048;-74
2023/07/02 04:13:38;;;;;;;1.05;0.98;;;13.40;99.90;;;;;;5060069;28;20052;-74
2023/07/02 04:16:04;;;;;;;0.60;0.60;;;13.50;99.90;;;;;;5062310;28;20041;-74
2023/07/02 04:18:30;;;;;;;0.90;0.52;;;13.40;99.90;;;;;;5061265;28;20047;-74
2023/07/02 04:20:56;;;;;;;1.75;1.40;;;13.40;99.90;;;;;;5072698;28;20412;-75
2023/07/02 04:23:22;;;;;;;1.40;1.30;;;13.70;99.90;;;;;;5055048;28;21513;-74
2023/07/02 04:25:47;;;;;;;0.70;0.70;;;13.50;99.90;;;;;;5065393;28;20048;-74
2023/07/02 04:28:13;;;;;;;0.60;0.60;;;13.70;99.90;;;;;;5067756;28;20053;-75
2023/07/02 04:30:39;;;;;;;0.70;0.70;;;13.50;99.90;;;;;;5062414;28;20048;-75
2023/07/02 04:33:07;;;;;;;0.50;0.50;;;13.70;99.90;;;;;;5059548;28;20444;-74
2023/07/02 04:35:34;;;;;;;;;;;13.70;99.90;;;;;;5068032;28;20110;-74
2023/07/02 04:38:00;;;;;;;0.40;0.40;;;13.70;99.90;;;;;;5065202;28;19923;-74
2023/07/02 04:40:26;;;;;;;0.55;0.55;;;13.90;99.90;;;;;;5071623;28;20055;-74
2023/07/02 04:42:57;;;;;;;0.88;0.88;;;13.80;99.90;;;;;;5064691;28;20059;-74
2023/07/02 04:45:31;;;;;;;1.38;1.13;;;13.90;99.90;;;;;;5059018;28;20051;-74
2023/07/02 04:47:57;;;;;;;0.80;0.80;;;13.90;99.90;;;;;;5060171;28;20084;-74
2023/07/02 04:50:23;;;;;;;2.65;1.15;;;13.90;99.90;;;;;;5064018;28;20080;-74
2023/07/02 04:52:48;;;;;;;1.10;1.10;;;14.00;99.90;;;;;;5059617;28;20051;-75
2023/07/02 04:55:14;;;;;;;0.80;0.80;;;14.20;99.90;;;;;;5054417;28;20484;-74
2023/07/02 04:57:40;;;;;;;0.93;0.93;;;14.30;99.90;;;;;;5057061;28;20045;-74
2023/07/02 05:00:08;;;;;;;1.55;1.50;;;14.20;99.90;;;;;;5073170;28;20036;-74
2023/07/02 05:02:33;;;;;;;1.00;1.00;;;14.40;99.90;;;;;;5067805;28;20051;-74
2023/07/02 05:04:59;;;;;;;0.63;0.63;;;14.50;99.90;;;;;;5066557;28;20036;-73
2023/07/02 05:07:25;;;;;;;2.03;1.85;;;14.60;99.90;;;;;;5067084;28;20585;-73
2023/07/02 05:09:52;;;;;;;3.80;2.05;;;14.50;99.90;;;;;;5065644;28;20429;-74
2023/07/02 05:12:18;;;;;;;1.77;1.67;;;14.50;99.90;;;;;;5063168;28;20109;-75
2023/07/02 05:14:44;;;;;;;1.25;1.25;;;14.50;99.90;;;;;;5069468;28;20860;-74
2023/07/02 05:17:10;;;;;;;3.88;1.63;;;14.50;99.90;;;;;;5073241;28;20059;-74
2023/07/02 05:19:36;;;;;;;1.38;1.25;;;14.50;99.90;;;;;;5055887;28;20053;-74
2023/07/02 05:22:02;;;;;;;0.93;0.93;;;14.60;99.90;;;;;;5075566;28;20048;-74
2023/07/02 05:24:28;;;;;;;2.45;2.25;;;14.60;99.90;;;;;;5069237;28;20546;-74
2023/07/02 05:26:53;;;;;;;0.93;0.93;;;14.60;99.90;;;;;;5072266;28;20049;-74
2023/07/02 05:29:19;;;;;;;0.65;0.65;;;14.80;99.90;;;;;;5060197;28;20044;-74
2023/07/02 05:31:45;;;;;;;0.75;0.75;;;14.80;99.90;;;;;;5055689;28;20036;-74
2023/07/02 05:34:10;;;;;;;1.45;1.35;;;14.90;99.90;;;;;;5071036;28;20055;-74
2023/07/02 05:36:37;;;;;;;1.20;1.17;;;14.90;99.90;;;;;;5070297;28;20049;-74
2023/07/02 05:39:03;;;;;;;1.42;1.33;;;14.90;99.90;;;;;;5065522;28;20060;-75
2023/07/02 05:41:30;;;;;;;1.77;1.67;;;15.00;99.90;;;;;;5069847;28;20044;-74
2023/07/02 05:43:57;;;;;;;1.70;1.60;;;15.00;99.90;;;;;;5056688;28;20049;-74
2023/07/02 05:46:23;;;;;;;0.70;0.70;;;15.10;99.90;;;;;;5053072;28;20120;-74
2023/07/02 05:48:50;;;;;;;0.43;0.43;;;15.00;99.90;;;;;;5073475;28;20064;-73
2023/07/02 05:51:25;;;;;;;1.35;1.35;;;15.10;99.90;;;;;;5076048;28;20133;-74
2023/07/02 05:53:51;;;;;;;1.77;1.67;;;15.10;99.90;;;;;;5068787;28;20509;-74
2023/07/02 05:56:18;;;;;;;1.20;1.10;;;15.20;99.90;;;;;;5065817;28;20045;-74
2023/07/02 05:58:46;;;;;;;2.47;2.28;;;15.30;99.90;;;;;;5062996;28;20040;-74
2023/07/02 06:01:11;;;;;;;0.63;0.63;;;15.30;99.90;;;;;;5070862;28;20056;-74
2023/07/02 06:03:37;;;;;;;1.27;0.93;;;15.40;99.90;;;;;;5061779;28;20512;-74
2023/07/02 06:06:03;;;;;;;2.88;1.13;;;15.50;99.90;;;;;;5051498;28;20078;-73
2023/07/02 06:08:29;;;;;;;1.63;1.52;;;15.50;99.90;;;;;;5069548;28;20048;-74
2023/07/02 06:10:55;;;;;;;1.40;1.30;;;15.80;99.90;;;;;;5068333;28;20517;-73
2023/07/02 06:13:21;;;;;;;6.25;3.13;;;15.70;99.90;;;;;;5071959;28;20127;-74
2023/07/02 06:15:47;;;;;;;0.88;0.88;;;15.80;99.90;;;;;;5075213;28;20432;-74
2023/07/02 06:18:13;;;;;;;1.13;1.13;;;15.80;99.90;;;;;;5072297;28;20155;-74
2023/07/02 06:20:39;;;;;;;1.52;1.42;;;16.00;99.90;;;;;;5048071;28;20056;-74
2023/07/02 06:23:04;;;;;;;1.65;1.38;;;16.10;99.90;;;;;;5062271;28;20049;-74
2023/07/02 06:25:30;;;;;;;1.52;1.00;;;16.40;99.90;;;;;;5073737;28;20052;-75
2023/07/02 06:27:58;;;;;;;0.98;0.93;;;16.40;99.90;;;;;;5060148;28;20048;-74
2023/07/02 06:30:24;;;;;;;1.27;0.60;;;16.50;99.90;;;;;;5060542;28;20072;-74
2023/07/02 06:32:50;;;;;;;1.05;1.05;;;16.60;99.90;;;;;;5062662;28;20051;-74
2023/07/02 06:35:16;;;;;;;0.90;0.90;;;16.80;99.90;;;;;;5062633;28;20060;-74
2023/07/02 06:37:42;;;;;;;1.75;1.67;;;16.70;99.90;;;;;;5067012;28;20052;-74
2023/07/02 06:40:08;;;;;;;2.63;1.38;;;16.90;99.90;;;;;;5070209;28;20135;-74
2023/07/02 06:42:35;;;;;;;1.58;1.45;;;17.00;99.90;;;;;;5048997;28;20051;-74
2023/07/02 06:45:02;;;;;;;2.42;2.10;;;17.00;99.90;;;;;;5063045;28;20045;-74
2023/07/02 06:47:27;;;;;;;0.90;0.90;;;17.00;99.90;;;;;;5063809;28;20152;-74
2023/07/02 06:49:53;;;;;;;1.90;1.80;;;17.00;99.90;;;;;;5070997;28;20197;-74
2023/07/02 06:52:19;;;;;;;1.10;1.10;;;17.10;99.90;;;;;;5058178;28;20638;-74
2023/07/02 06:54:44;;;;;;;2.83;1.67;;;16.80;99.90;;;;;;5047887;28;20504;-74
2023/07/02 06:57:10;;;;;;;1.35;1.25;;;16.80;99.90;;;;;;5063863;28;20029;-74
2023/07/02 06:59:36;;;;;;;1.05;0.90;;;16.60;99.90;;;;;;5058848;28;20076;-74
2023/07/02 07:02:02;;;;;;;3.38;1.33;;;16.50;99.90;;;;;;5059513;28;20049;-73
2023/07/02 07:04:28;;;;;;;0.80;0.70;;;16.60;99.90;;;;;;5061372;28;20044;-73
2023/07/02 07:06:55;;;;;;;2.15;1.77;;;16.40;99.90;;;;;;5070758;28;20067;-73
2023/07/02 07:09:21;;;;;;;1.55;1.48;;;16.60;99.90;;;;;;5055675;28;20053;-73
2023/07/02 07:11:47;;;;;;;3.65;2.63;;;16.90;99.90;;;;;;5063197;28;20044;-73
2023/07/02 07:14:12;;;;;;;1.88;0.80;;;17.10;99.90;;;;;;5074215;28;20112;-74
2023/07/02 07:16:38;;;;;;;0.52;0.52;;;17.40;99.90;;;;;;5065849;28;20044;-74
2023/07/02 07:19:04;;;;;;;0.90;0.90;;;17.60;99.90;;;;;;5066852;28;20052;-73
2023/07/02 07:21:30;;;;;;;0.77;0.77;;;17.70;99.90;;;;;;5061143;28;20079;-73
2023/07/02 07:23:56;;;;;;;1.67;1.58;;;17.70;99.90;;;;;;5064845;28;20437;-74
2023/07/02 07:26:21;;;;;;;1.33;1.25;;;17.60;99.90;;;;;;5063204;28;20053;-74
2023/07/02 07:28:47;;;;;;;1.45;1.27;;;17.60;99.90;;;;;;5066156;28;20052;-74
2023/07/02 07:31:13;;;;;;;1.65;1.55;;;17.60;99.90;;;;;;5069580;28;20048;-74
2023/07/02 07:33:38;;;;;;;1.30;1.30;;;17.60;99.90;;;;;;5067196;28;20061;-74
2023/07/02 07:36:04;;;;;;;3.35;2.15;;;17.60;99.90;;;;;;5065732;28;20032;-73
2023/07/02 07:38:30;;;;;;;0.80;0.80;;;17.40;99.90;;;;;;5068441;28;20052;-73
2023/07/02 07:40:55;;;;;;;2.95;1.33;;;17.40;99.90;;;;;;5064052;28;20075;-74
2023/07/02 07:43:21;;;;;;;3.13;1.63;;;17.50;99.90;;;;;;5063597;28;20104;-74
2023/07/02 07:45:47;;;;;;;3.40;2.05;;;17.60;99.90;;;;;;5060331;28;20041;-73
2023/07/02 07:48:13;;;;;;;0.52;0.52;;;18.00;99.90;;;;;;5059247;28;20044;-74
2023/07/02 07:50:38;;;;;;;1.17;1.08;;;18.50;99.90;;;;;;5066154;28;20040;-74
2023/07/02 07:53:04;;;;;;;0.40;0.40;;;18.70;99.90;;;;;;5068007;28;20465;-74
2023/07/02 07:55:29;;;;;;;0.93;0.93;;;19.00;99.90;;;;;;5064547;28;20127;-74
2023/07/02 07:57:55;;;;;;;1.58;1.48;;;19.20;99.90;;;;;;5062586;28;20037;-74
2023/07/02 08:00:21;;;;;;;1.35;1.25;;;19.40;99.90;;;;;;5069304;28;20059;-74
2023/07/02 08:02:47;;;;;;;1.83;0.68;;;19.50;99.90;;;;;;5059807;28;20084;-73
2023/07/02 08:05:12;;;;;;;2.08;1.00;;;19.30;99.90;;;;;;5050820;28;20072;-74
2023/07/02 08:07:40;;;;;;;1.40;1.05;;;19.10;99.90;;;;;;5057671;28;20130;-74
2023/07/02 08:10:07;;;;;;;0.57;0.57;;;19.10;99.90;;;;;;5055328;28;20106;-74
2023/07/02 08:12:34;;;;;;;1.17;0.88;;;18.90;99.90;;;;;;5068279;28;20044;-74
2023/07/02 08:14:59;;;;;;;0.68;0.68;;;18.90;99.90;;;;;;5067330;28;20098;-74
2023/07/02 08:17:25;;;;;;;5.05;1.38;;;18.80;99.90;;;;;;5075155;28;20056;-74
2023/07/02 08:19:51;;;;;;;0.63;0.63;;;19.00;99.90;;;;;;5077846;28;20132;-74
2023/07/02 08:22:18;;;;;;;0.75;0.75;;;19.10;99.90;;;;;;5069649;28;20070;-74
2023/07/02 08:24:43;;;;;;;0.60;0.60;;;19.10;99.90;;;;;;5069530;28;20054;-76
2023/07/02 08:27:13;;;;;;;0.60;0.60;;;18.90;99.90;;;;;;5058586;28;20036;-74
2023/07/02 08:29:39;;;;;;;1.42;1.25;;;18.60;99.90;;;;;;5064846;28;20109;-74
2023/07/02 08:32:06;;;;;;;0.45;0.45;;;18.60;99.90;;;;;;5068349;28;20040;-73
2023/07/02 08:34:31;;;;;;;0.38;0.38;;;18.60;99.90;;;;;;5063654;28;20101;-74
2023/07/02 08:36:58;;;;;;;1.30;1.23;;;18.80;99.90;;;;;;5060043;28;20048;-74
2023/07/02 08:39:24;;;;;;;0.88;0.63;;;18.90;99.90;;;;;;5066292;28;20115;-73
2023/07/02 08:41:50;;;;;;;0.77;0.77;;;19.10;99.90;;;;;;5067509;28;20053;-74
2023/07/02 08:44:21;;;;;;;0.75;0.75;;;19.50;99.90;;;;;;5071061;28;20032;-74
2023/07/02 08:46:50;;;;;;;1.63;1.42;;;19.50;99.90;;;;;;5071594;28;20052;-75
2023/07/02 08:49:17;;;;;;;5.05;1.00;;;19.50;99.90;;;;;;5050869;28;20048;-74
2023/07/02 08:51:46;;;;;;;1.65;1.55;;;19.40;99.90;;;;;;5076528;28;20446;-74
2023/07/02 08:54:14;;;;;;;0.40;0.40;;;19.40;99.90;;;;;;5065226;28;20084;-74
2023/07/02 08:56:39;;;;;;;1.02;1.02;;;19.30;99.90;;;;;;5068825;28;20044;-74
2023/07/02 08:59:11;;;;;;;1.60;1.48;;;19.20;99.90;;;;;;5057444;28;20037;-74
2023/07/02 09:01:48;;;;;;;0.70;0.70;;;18.90;99.90;;;;;;5076537;28;20406;-74
2023/07/02 09:04:17;;;;;;;6.18;2.70;;;18.80;99.90;;;;;;5070917;28;20116;-75
2023/07/02 09:06:43;;;;;;;0.40;0.40;;;18.60;99.90;;;;;;5078277;28;20055;-74
2023/07/02 09:09:09;;;;;;;0.40;0.40;;;18.60;99.90;;;;;;5073502;28;20139;-73
2023/07/02 09:11:45;;;;;;;1.00;1.00;;;18.70;99.90;;;;;;5051106;28;20039;-75
2023/07/02 09:14:11;;;;;;;0.35;0.35;;;18.80;99.90;;;;;;5057678;28;20045;-74
2023/07/02 09:16:40;;;;;;;0.50;0.50;;;18.90;99.90;;;;;;5065910;28;20049;-74
2023/07/02 09:19:07;;;;;;;0.65;0.65;;;18.70;99.90;;;;;;5074404;28;20120;-75
2023/07/02 09:21:42;;;;;;;0.45;0.45;;;18.70;99.90;;;;;;5065185;28;20053;-75
2023/07/02 09:24:18;;;;;;;5.47;2.33;;;18.60;99.90;;;;;;5073588;28;20594;-75
2023/07/02 09:26:51;;;;;;;0.98;0.98;;;18.60;99.90;;;;;;5055066;28;20151;-74
2023/07/02 09:29:30;;;;;;;0.90;0.55;;;18.30;99.90;;;;;;5070959;28;20135;-74
2023/07/02 09:31:59;;;;;;;1.42;1.33;;;18.20;99.90;;;;;;5060330;28;20044;-74
2023/07/02 09:34:28;;;;;;;0.50;0.50;;;18.20;99.90;;;;;;5070233;28;20040;-75
2023/07/02 09:36:54;;;;;;;1.35;0.98;;;18.50;99.90;;;;;;5070422;28;20052;-75
2023/07/02 09:39:25;;;;;;;1.67;1.38;;;18.90;99.90;;;;;;5071103;28;20040;-75
2023/07/02 09:41:51;;;;;;;0.47;0.47;;;19.10;99.90;;;;;;5077637;28;20528;-75
2023/07/02 09:44:18;;;;;;;1.10;0.73;;;19.10;99.90;;;;;;5063327;28;20064;-74
2023/07/02 09:46:57;;;;;;;1.50;1.40;;;19.10;99.90;;;;;;5067479;28;20126;-75
2023/07/02 09:49:24;;;;;;;0.73;0.73;;;19.00;99.90;;;;;;5072563;28;20045;-74
2023/07/02 09:51:50;;;;;;;2.63;1.58;;;19.10;99.90;;;;;;5065768;28;20473;-75
2023/07/02 09:54:17;;;;;;;1.60;1.50;;;19.10;99.90;;;;;;5062589;28;20076;-72
2023/07/02 09:56:45;;;;;;;1.25;1.15;;;19.00;99.90;;;;;;5068246;28;20059;-73
2023/07/02 09:59:11;;;;;;;0.75;0.63;;;19.00;99.90;;;;;;5055841;28;20049;-72
2023/07/02 10:01:37;;;;;;;0.77;0.77;;;19.00;99.90;;;;;;5070543;28;20058;-71
2023/07/02 10:04:18;;;;;;;0.50;0.50;;;19.00;99.90;;;;;;5056099;28;20412;-72
2023/07/02 10:06:55;;;;;;;1.17;0.95;;;18.80;99.90;;;;;;5072329;28;20109;-73
2023/07/02 10:09:34;;;;;;;0.95;0.93;;;18.80;99.90;;;;;;5068478;28;20810;-72
2023/07/02 10:11:59;;;;;;;1.10;1.10;;;18.80;99.90;;;;;;5066928;28;20132;-72
2023/07/02 10:14:25;;;;;;;1.58;0.70;;;18.80;99.90;;;;;;5069204;28;20119;-72
2023/07/02 10:16:55;;;;;;;0.55;0.55;;;18.90;99.90;;;;;;5064218;28;20110;-72
2023/07/02 10:19:21;;;;;;;1.88;0.85;;;18.90;99.90;;;;;;5067646;28;20188;-72
2023/07/02 10:22:01;;;;;;;0.50;0.50;;;19.00;99.90;;;;;;5070396;28;20537;-72
2023/07/02 10:24:27;;;;;;;1.40;1.30;;;19.20;99.90;;;;;;5073842;28;20090;-72
2023/07/02 10:26:56;;;;;;;0.85;0.85;;;19.40;99.90;;;;;;5067955;28;20052;-72
2023/07/02 10:29:25;;;;;;;0.50;0.50;;;19.60;99.90;;;;;;5059304;28;20550;-72
2023/07/02 10:31:53;;;;;;;1.10;1.10;;;19.80;99.90;;;;;;5063611;28;20048;-72
2023/07/02 10:34:32;;;;;;;2.22;0.98;;;20.00;99.90;;;;;;5066750;28;20040;-72
2023/07/02 10:37:00;;;;;;;1.02;1.02;;;20.00;99.90;;;;;;5067886;28;20493;-73
2023/07/02 10:39:26;;;;;;;3.30;1.73;;;20.00;99.90;;;;;;5063180;28;20515;-72
2023/07/02 10:41:52;;;;;;;0.55;0.55;;;19.90;99.90;;;;;;5069368;28;20059;-72
2023/07/02 10:44:24;;;;;;;0.77;0.77;;;19.80;99.90;;;;;;5068151;28;20049;-73
2023/07/02 10:46:51;;;;;;;1.13;0.93;;;19.80;99.90;;;;;;5066814;28;20466;-72
2023/07/02 10:49:19;;;;;;;1.30;1.20;;;19.90;99.90;;;;;;5070703;28;20159;-73
2023/07/02 10:51:44;;;;;;;3.85;1.00;;;20.00;99.90;;;;;;5069442;28;20048;-72
2023/07/02 10:54:10;;;;;;;0.65;0.65;;;20.40;99.90;;;;;;5061294;28;20071;-73
2023/07/02 10:56:36;;;;;;;0.95;0.95;;;20.60;99.90;;;;;;5074356;28;20375;-73
2023/07/02 10:59:02;;;;;;;1.20;1.20;;;20.90;99.90;;;;;;5069645;28;20060;-73
2023/07/02 11:01:30;;;;;;;1.00;1.00;;;20.80;99.90;;;;;;5071099;28;20039;-73
2023/07/02 11:04:04;;;;;;;1.23;0.82;;;20.70;99.90;;;;;;5063965;28;20572;-73
2023/07/02 11:06:34;;;;;;;1.17;1.08;;;20.60;99.90;;;;;;5066228;28;20048;-74
2023/07/02 11:09:01;;;;;;;0.60;0.60;;;20.50;99.90;;;;;;5069301;28;20052;-72
2023/07/02 11:11:27;;;;;;;0.73;0.73;;;20.50;99.90;;;;;;5068259;28;20574;-73
2023/07/02 11:13:53;;;;;;;0.95;0.85;;;20.40;99.90;;;;;;5074465;28;20473;-73
2023/07/02 11:16:28;;;;;;;0.80;0.80;;;20.40;99.90;;;;;;5063150;28;20045;-73
2023/07/02 11:19:14;;;;;;;1.05;1.05;;;20.20;99.90;;;;;;5063617;28;20055;-72
2023/07/02 11:21:51;;;;;;;1.15;1.13;;;20.00;99.90;;;;;;5073425;28;20064;-72
2023/07/02 11:24:33;;;;;;;1.00;1.00;;;19.90;99.90;;;;;;5064930;28;20044;-73
2023/07/02 11:27:00;;;;;;;0.45;0.45;;;19.80;99.90;;;;;;5070485;28;20044;-72
2023/07/02 11:29:27;;;;;;;1.45;1.35;;;19.80;99.90;;;;;;5061008;28;20052;-73
2023/07/02 11:31:53;;;;;;;1.40;1.30;;;19.80;99.90;;;;;;5071562;28;20083;-74
2023/07/02 11:34:21;;;;;;;0.60;0.60;;;19.80;99.90;;;;;;5062312;28;20496;-72
2023/07/02 11:36:48;;;;;;;0.90;0.90;;;20.10;99.90;;;;;;5062166;28;20056;-73
2023/07/02 11:39:15;;;;;;;1.20;1.20;;;20.20;99.90;;;;;;5058791;28;20160;-72
2023/07/02 11:41:45;;;;;;;0.90;0.90;;;20.30;99.90;;;;;;5059562;28;20051;-72
2023/07/02 11:44:11;;;;;;;2.28;2.13;;;20.40;99.90;;;;;;5067055;28;20059;-73
2023/07/02 11:46:37;;;;;;;0.60;0.60;;;20.40;99.90;;;;;;5074304;28;20043;-72
2023/07/02 11:49:09;;;;;;;0.90;0.75;;;20.30;99.90;;;;;;5062867;28;20407;-72
2023/07/02 11:51:46;;;;;;;1.00;0.95;;;20.40;99.90;;;;;;5061786;28;20067;-72
2023/07/02 11:54:12;;;;;;;0.80;0.80;;;20.40;99.90;;;;;;5064143;28;20506;-72
2023/07/02 11:56:38;;;;;;;2.15;1.00;;;20.60;99.90;;;;;;5071495;28;20032;-72
2023/07/02 11:59:04;;;;;;;1.95;1.75;;;20.70;99.90;;;;;;5065364;28;20045;-71
2023/07/02 12:01:29;;;;;;;0.65;0.65;;;20.80;99.90;;;;;;5063458;28;20376;-73
2023/07/02 12:03:55;;;;;;;0.50;0.50;;;20.80;99.90;;;;;;5055423;28;20048;-72
2023/07/02 12:06:21;;;;;;;1.88;0.93;;;20.70;99.90;;;;;;5057960;28;20098;-72
2023/07/02 12:08:46;;;;;;;1.35;1.25;;;20.70;99.90;;;;;;5068493;28;20103;-71
2023/07/02 12:11:12;;;;;;;0.95;0.95;;;20.50;99.90;;;;;;5067972;28;20066;-72
2023/07/02 12:13:38;;;;;;;0.77;0.77;;;20.30;99.90;;;;;;5057929;28;20083;-72
2023/07/02 12:16:04;;;;;;;1.85;1.75;;;20.30;99.90;;;;;;5057305;28;20052;-72
2023/07/02 12:18:30;;;;;;;2.97;1.23;;;20.40;99.90;;;;;;5067831;28;20028;-72
2023/07/02 12:20:55;;;;;;;1.17;0.88;;;20.60;99.90;;;;;;5061977;28;20669;-72
2023/07/02 12:23:21;;;;;;;0.80;0.80;;;20.80;99.90;;;;;;5054283;28;20118;-72
2023/07/02 12:25:47;;;;;;;0.80;0.80;;;20.90;99.90;;;;;;5070897;28;20045;-72
2023/07/02 12:28:15;;;;;;;3.70;1.83;;;21.00;99.90;;;;;;5074779;28;20059;-72
2023/07/02 12:30:40;;;;;;;;;;;20.80;99.90;;;;;;5065101;28;20045;-72
2023/07/02 12:33:06;;;;;;;0.75;0.75;;;20.70;99.90;;;;;;5068407;28;19947;-72
2023/07/02 12:35:31;;;;;;;0.50;0.50;;;20.60;99.90;;;;;;5072061;28;20501;-73
2023/07/02 12:37:57;;;;;;;1.52;1.42;;;20.60;99.90;;;;;;5080285;28;20121;-72
2023/07/02 12:40:23;;;;;;;0.40;0.40;;;20.80;99.90;;;;;;5070548;28;20578;-72
2023/07/02 12:42:51;;;;;;;0.90;0.65;;;20.80;99.90;;;;;;5070805;28;20107;-72
2023/07/02 12:45:16;;;;;;;;;;;20.80;99.90;;;;;;5073425;28;20048;-72
2023/07/02 12:47:43;;;;;;;0.57;0.57;;;20.70;99.90;;;;;;5073783;28;19935;-72